WEATHER DATA

YESTERDAY
Time Temp. Dewp. Hum. Wind dir Wind speed Wind gust Bar. 1h Prec. 24h Prec.
00:01 15 8 63 226 1.4 2.2 1022.8 0.0000 0.0000
00:11 14.9 7.9 63 225 1.4 2.5 1022.8 0.0000 0.0000
00:22 14.8 7.8 63 225 1.9 2.5 1022.8 0.0000 0.0000
00:31 14.7 8 64 221 2.2 3.1 1022.7 0.0000 0.0000
00:41 14.6 7.9 64 222 1.4 2.5 1022.6 0.0000 0.0000
00:52 14.5 8 65 223 1.9 2.2 1022.5 0.0000 0.0000
01:02 14.4 8.1 66 220 1.9 2.5 1022.3 0.0000 0.0000
01:12 14.3 8 66 223 1.9 2.5 1022.3 0.0000 0.0000
01:21 14.2 8.2 67 223 1.9 2.5 1022.3 0.0000 0.0000
01:32 14.1 8.1 67 223 1.9 2.5 1022.3 0.0000 0.0000
01:42 14.1 7.9 66 220 1.9 2.5 1022.2 0.0000 0.0000
01:52 14.1 7.9 66 222 1.9 2.5 1022.2 0.0000 0.0000
02:02 14.1 7.9 66 222 1.9 2.5 1022.1 0.0000 0.0000
02:13 14.2 7.7 65 206 1.4 2.2 1022 0.0000 0.0000
02:22 14.3 7.8 65 223 1.9 3.1 1022 0.0000 0.0000
02:32 14.4 7.7 64 222 1.4 2.5 1021.9 0.0000 0.0000
02:43 14.4 8.1 66 222 1.9 2.5 1021.8 0.0000 0.0000
02:53 14.4 8.4 67 222 1.4 2.2 1021.8 0.0000 0.0000
03:03 14.5 8.2 66 217 1.4 2.2 1021.6 0.0000 0.0000
03:13 14.6 8.1 65 211 1.4 1.9 1021.6 0.0000 0.0000
03:23 14.9 8.2 64 218 1.4 2.2 1021.6 0.0000 0.0000
03:33 14.9 8.2 64 221 1.9 2.5 1021.5 0.0000 0.0000
03:43 14.9 8.2 64 223 1.9 2.5 1021.5 0.0000 0.0000
03:54 14.8 8.1 64 221 1.9 3.1 1021.5 0.0000 0.0000
04:04 14.8 7.8 63 220 1.9 2.5 1021.5 0.0000 0.0000
04:23 15.2 8.2 63 216 1.9 3.3 1021.4 0.0000 0.0000
04:34 15.6 8.1 61 218 1.4 2.5 1021.4 0.0000 0.0000
04:44 15.7 7.7 59 216 1.9 3.1 1021.4 0.0000 0.0000
04:54 16 8.5 61 210 1.9 3.3 1021.3 0.0000 0.0000
05:04 16.3 8.8 61 216 1.9 3.1 1021.3 0.0000 0.0000
05:24 16.7 8.1 57 203 1.9 3.1 1021.2 0.0000 0.0000
05:34 16.7 7.4 54 204 1.4 2.2 1021.1 0.0000 0.0000
05:45 16.8 7.2 53 181 1.4 2.5 1021.1 0.0000 0.0000
05:55 16.7 7.1 53 186 1.9 3.1 1021.1 0.0000 0.0000
06:15 16.7 6.8 52 208 1.4 3.1 1021.2 0.0000 0.0000
06:35 16.6 7.3 54 222 1.4 2.2 1021.3 0.0000 0.0000
06:45 16.3 7.3 55 221 1.9 2.2 1021.4 0.0000 0.0000
06:55 16.1 7.3 56 221 2.2 3.1 1021.4 0.0000 0.0000
07:05 15.9 7.1 56 221 1.4 2.5 1021.4 0.0000 0.0000
07:15 16 6.7 54 218 1.4 3.1 1021.4 0.0000 0.0000
07:25 16 7.2 56 212 1.4 2.2 1021.6 0.0000 0.0000
07:36 16 7.2 56 220 1.9 3.1 1021.5 0.0000 0.0000
07:45 16 7.2 56 230 1.1 2.2 1021.6 0.0000 0.0000
07:55 16.2 7.4 56 239 0.8 1.1 1021.6 0.0000 0.0000
08:06 16.4 7.9 57 270 0.3 1.1 1021.8 0.0000 0.0000
08:16 16.7 8.7 59 204 1.1 1.9 1021.9 0.0000 0.0000
08:26 17 8.7 58 217 1.1 1.4 1021.9 0.0000 0.0000
08:45 17.5 9.4 59 225 1.4 5 1021.9 0.0000 0.0000
08:47 17.5 9.2 58 228 2.5 8.9 1021.9 0.0000 0.0000
08:57 17.8 9.2 57 230 4.2 9.4 1022 0.0000 0.0000
09:07 18.1 8.9 55 232 2.2 4.2 1022 0.0000 0.0000
09:17 18.4 9.2 55 244 1.1 2.5 1022 0.0000 0.0000
09:27 18.6 8.8 53 270 0.8 1.4 1022.1 0.0000 0.0000
09:37 18.7 8.9 53 270 0.8 2.2 1022.1 0.0000 0.0000
09:47 19 9.5 54 270 1.1 2.2 1022.1 0.0000 0.0000
09:58 19.2 10.5 57 312 0.8 2.2 1022.2 0.0000 0.0000
10:08 19.4 10.1 55 326 0.3 1.4 1022.3 0.0000 0.0000
10:17 19.6 10.3 55 270 1.1 3.1 1022.3 0.0000 0.0000
10:27 19.9 10.9 56 306 0.8 1.9 1022.2 0.0000 0.0000
10:38 20 10.7 55 287 1.1 2.5 1022.2 0.0000 0.0000
10:48 20 10.7 55 252 0.8 1.9 1022.3 0.0000 0.0000
10:58 20 11.2 57 239 1.1 2.5 1022.3 0.0000 0.0000
11:08 20.2 11.7 58 226 1.1 2.2 1022.2 0.0000 0.0000
11:18 20.2 11.4 57 226 1.1 1.9 1022.3 0.0000 0.0000
11:28 20.1 12.1 60 231 1.1 1.9 1022.3 0.0000 0.0000
11:39 20.2 12.4 61 230 1.9 8.3 1022.2 0.0000 0.0000
11:49 20.7 11.1 54 251 1.4 4.4 1022.2 0.0000 0.0000
12:00 20.7 11.9 57 252 0.8 1.4 1022.1 0.0000 0.0000
12:09 20.9 12.1 57 243 0.8 1.1 1022.1 0.0000 0.0000
12:19 20.9 12.3 58 243 1.1 4.4 1022.1 0.0000 0.0000
12:30 21.2 12.4 57 270 0.8 1.4 1022 0.0000 0.0000
12:36 21.6 12.7 57 240 2.2 8.6 1022.1 0.0000 0.0000
12:47 21.8 12.4 55 300 1.4 2.2 1022.1 0.0000 0.0000
12:56 21.8 12.9 57 262 1.1 1.9 1022.1 0.0000 0.0000
13:06 21.7 12.3 55 258 1.1 1.9 1022 0.0000 0.0000
13:17 21.5 12.6 57 270 1.1 2.2 1022 0.0000 0.0000
13:27 21.4 13.1 59 279 1.4 3.3 1022.1 0.0000 0.0000
13:37 21.3 13.2 60 305 1.4 3.1 1022 0.0000 0.0000
13:47 21 12.9 60 353 1.1 2.5 1022.1 0.0000 0.0000
13:57 20.3 12.8 62 116 0.8 1.9 1022 0.0000 0.0000
14:07 19.9 12.7 63 90 0.3 1.4 1022 0.0000 0.0000
14:17 19.5 12.5 64 90 0.8 1.9 1021.9 0.0000 0.0000
14:26 19.7 13.2 66 247 2.2 9.4 1022 0.0000 0.0000
14:36 20.7 13.9 65 242 5 10.6 1022.2 0.0000 0.0000
14:46 20.8 13.3 62 278 1.1 2.5 1022.2 0.0000 0.0000
14:57 20.8 13 61 270 1.1 2.5 1022.3 0.0000 0.0000
15:06 20.8 13.3 62 270 0.8 1.9 1022.1 0.0000 0.0000
15:16 20.6 12.8 61 270 0.8 1.4 1022.1 0.0000 0.0000
15:26 20.4 12.4 60 227 0.8 1.1 1022 0.0000 0.0000
15:37 20.2 12.4 61 236 0.3 1.1 1021.8 0.0000 0.0000
15:47 20.1 12.8 63 270 1.1 1.9 1021.8 0.0000 0.0000
15:56 20 13 64 270 1.1 1.9 1021.8 0.0000 0.0000
16:07 19.7 12.9 65 270 0.8 1.4 1021.9 0.0000 0.0000
16:17 19.6 13.3 67 270 0.8 1.4 1021.9 0.0000 0.0000
16:27 19.6 13.3 67 270 0.3 0.8 1021.9 0.0000 0.0000
16:37 19.5 13.4 68 270 0.3 1.1 1021.9 0.0000 0.0000
16:48 19.6 13.8 69 255 0.8 1.1 1021.8 0.0000 0.0000
16:57 19.6 13.1 66 238 1.1 3.6 1021.5 0.0000 0.0000
17:07 19.6 13.3 67 270 0.8 1.9 1021.4 0.0000 0.0000
17:18 19.6 13.3 67 270 0.3 1.4 1021.1 0.0000 0.0000
17:28 20 13.9 68 284 1.1 2.2 1021.1 0.0000 0.0000
17:38 20.3 13.7 66 303 0.8 1.9 1020.9 0.0000 0.0000
17:47 20.4 13.6 65 341 0.3 1.1 1021.1 0.0000 0.0000
17:58 20.6 13.8 65 306 0.3 1.1 1021.2 0.0000 0.0000
18:08 20.9 13.6 63 208 0.3 1.1 1021.3 0.0000 0.0000
18:18 20.9 13.4 62 206 0.3 1.1 1021.3 0.0000 0.0000
18:29 20.5 13 62 198 0.8 1.4 1021.3 0.0000 0.0000
18:38 20.1 12.6 62 219 1.1 1.9 1021.2 0.0000 0.0000
18:48 19.9 13.1 65 245 0.8 1.4 1021.3 0.0000 0.0000
18:58 19.8 13.3 66 228 1.1 1.9 1021.3 0.0000 0.0000
19:09 19.5 12 62 223 1.4 2.5 1021.3 0.0000 0.0000
19:19 19.2 11.3 60 220 1.4 3.1 1021.3 0.0000 0.0000
19:28 18.9 11.2 61 220 1.4 2.2 1021.3 0.0000 0.0000
19:39 18.6 11.2 62 240 1.1 1.9 1021.2 0.0000 0.0000
19:49 18.1 11.2 64 204 1.4 2.2 1021.2 0.0000 0.0000
19:59 17.8 11.1 65 225 1.4 2.2 1021.2 0.0000 0.0000
20:10 17.5 10.6 64 220 1.4 2.2 1021.1 0.0000 0.0000
20:20 17.2 10.6 65 213 1.9 3.1 1021.1 0.0000 0.0000
20:30 17 10.4 65 219 1.9 3.1 1020.9 0.0000 0.0000
20:40 16.9 10.3 65 215 1.4 2.2 1021.1 0.0000 0.0000
20:50 16.9 10.1 64 204 0.8 1.9 1021.2 0.0000 0.0000
21:00 17 9.9 63 208 1.1 2.2 1021.3 0.0000 0.0000
21:10 16.9 9.8 63 211 1.1 1.9 1021.3 0.0000 0.0000
21:20 16.7 9.9 64 207 1.9 3.1 1021.3 0.0000 0.0000
21:30 16.6 9.8 64 194 1.1 2.5 1021.3 0.0000 0.0000
21:41 16.7 9.4 62 222 0.8 3.1 1021.3 0.0000 0.0000
21:51 16.6 9.3 62 228 1.1 2.2 1021.5 0.0000 0.0000
22:00 16.5 9.4 63 223 1.1 1.9 1021.5 0.0000 0.0000
22:11 16.4 9.1 62 223 1.4 3.1 1021.4 0.0000 0.0000
22:21 16.4 8.9 61 220 1.4 2.5 1021.3 0.0000 0.0000
22:31 16.3 8.8 61 222 1.4 2.5 1021.2 0.0000 0.0000
22:41 16.2 8.7 61 225 1.4 2.5 1021.2 0.0000 0.0000
22:51 16.1 8.6 61 221 1.9 3.1 1021.2 0.0000 0.0000
23:01 16 8.5 61 223 1.9 2.5 1021.1 0.0000 0.0000
23:11 15.7 8.4 62 220 1.9 2.5 1021.2 0.0000 0.0000
23:32 15.5 8.3 62 222 1.9 2.5 1021.2 0.0000 0.0000
23:41 15.4 8.2 62 225 1.4 2.2 1021.2 0.0000 0.0000
23:51 15.4 8.9 65 225 1.9 3.1 1021.2 0.0000 0.0000

DAY STATISTIC

2018-08-19
TEMPERATURE
AVERAGE
17.8
HIGH
21.8
12:47
LOW
14.1
01:32
PRESSURE
AVERAGE
1021.7
HIGH
1022.8
00:01
LOW
1020.9
17:38
DEWPOINT
AVERAGE
10.2
HIGH
13.9
14:36
LOW
6.7
07:15
HUMIDITY
AVERAGE
61
HIGH
69
16:48
LOW
52
06:15
WIND SPEED
AVERAGE
1.3
HIGH
5.0
14:36
WIND GUST
AVERAGE
2.6
HIGH
10.6
14:36
WIND DIRECTION
PREVAILING
SW
64.5%
N
1.4
NE
0.0
E
1.4
SE
0.7
S
6.5
SW
64.5
W
20.3
NW
5.1
PRECIPITATION
RAIN HOUR
0.0
RAIN DAY
0.0
TEMPERATURE (°C)
LOW
14.1
HIGH
21.8
AVERAGE
17.8
PRESSURE (hpa)
LOW
1020.9
HIGH
1022.8
AVERAGE
1021.7
DEVICE